This is the latest recevied weather packets stored in our database for station/object KC1TLF-15. If no packets are shown the sender has not sent any weather packets the latest 1 day(s).
| Time | Temp. | Humidity | Pressure | Rain* | Wind** | Luminosity | Snow |
|---|---|---|---|---|---|---|---|
| 1778039470 | 16.67° C | 68% | 1017.6 hPa | 0 mm | 0 m/s | 0 W/m² | - |
| 1778038871 | 16.67° C | 68% | 1017.6 hPa | 0 mm | 0 m/s | 0 W/m² | - |
| 1778038270 | 17.22° C | 67% | 1017.6 hPa | 0 mm | 0 m/s | 0 W/m² | - |
| 1778037671 | 17.22° C | 66% | 1017.6 hPa | 0 mm | 0.45 m/s, 315° | 0 W/m² | - |
| 1778037070 | 17.78° C | 65% | 1017.7 hPa | 0 mm | 0 m/s | 0 W/m² | - |
| 1778036471 | 17.78° C | 63% | 1017.7 hPa | 0 mm | 0 m/s | 0 W/m² | - |
| 1778035870 | 18.33° C | 63% | 1017.7 hPa | 0 mm | 0 m/s | 0 W/m² | - |
| 1778035269 | 18.33° C | 63% | 1017.6 hPa | 0 mm | 0 m/s | 0 W/m² | - |
| 1778034671 | 18.33° C | 63% | 1017.6 hPa | 0 mm | 0 m/s | 0 W/m² | - |
| 1778033470 | 18.89° C | 61% | 1017.8 hPa | 0 mm | 0 m/s | 0 W/m² | - |
| 1778032270 | 19.44° C | 59% | 1017.6 hPa | 0 mm | 0 m/s | 0 W/m² | - |
| 1778031671 | 19.44° C | 58% | 1017.5 hPa | 0 mm | 0.45 m/s, 323° | 0 W/m² | - |
| 1778031069 | 20° C | 58% | 1017.3 hPa | 0 mm | 0.45 m/s, 313° | 0 W/m² | - |
| 1778030470 | 20° C | 57% | 1017.2 hPa | 0 mm | 0.89 m/s, 317° | 0 W/m² | - |
| 1778029871 | 20.56° C | 56% | 1016.8 hPa | 0 mm | 0 m/s | 0 W/m² | - |
| 1778029271 | 20.56° C | 56% | 1016.6 hPa | 0 mm | 0 m/s | 0 W/m² | - |
| 1778028071 | 20.56° C | 54% | 1016.5 hPa | 0 mm | 0 m/s | 0 W/m² | - |
| 1778026871 | 21.11° C | 54% | 1015.7 hPa | 0 mm | 0.45 m/s, 302° | - | - |
| 1778026271 | 21.11° C | 52% | 1015.8 hPa | 0 mm | 0.89 m/s, 270° | - | - |
| 1778025070 | 21.67° C | 51% | 1015.5 hPa | 0 mm | 0 m/s | - | - |
| 1778024471 | 22.22° C | 52% | 1015.2 hPa | 0 mm | 0.45 m/s, 324° | - | - |
| 1778023870 | 22.22° C | 49% | 1015.1 hPa | 0 mm | 0 m/s | - | - |
| 1778018470 | 26.11° C | 41% | 1013.6 hPa | 0 mm | 1.79 m/s, 1° | - | - |
| 1778014869 | 28.33° C | 33% | 1013.3 hPa | 0 mm | 0.89 m/s, 333° | - | - |
* Rain latest hour (hover to see other rain measurements)
** Current wind speed in m/s (hover to see current wind gust speed)